Time;durP1;ratioP1;P1;durP2;ratioP2;P2;SDS_P1;SDS_P2;PMS_P1;PMS_P2;Temp;Humidity;BMP_temperature;BMP_pressure;BME280_temperature;BME280_humidity;BME280_pressure;Samples;Min_cycle;Max_cycle;Signal;HPM_P1;HPM_P2
2023/03/12 00:00:17;;;;;;;0.70;0.70;;;0.60;69.30;;;0.10;57.23;94381.59;5131819;27;20194;-17
2023/03/12 00:02:44;;;;;;;0.80;0.80;;;0.60;69.30;;;0.11;57.33;94386.63;5131958;27;20201;-17
2023/03/12 00:05:11;;;;;;;0.80;0.80;;;0.60;69.30;;;0.09;57.41;94393.66;5115764;28;20194;-17
2023/03/12 00:07:38;;;;;;;0.85;0.85;;;0.60;69.30;;;0.04;57.97;94395.88;5115707;28;20250;-18
2023/03/12 00:10:06;;;;;;;0.80;0.80;;;0.60;69.30;;;0.01;57.82;94403.88;5114930;28;20288;-17
2023/03/12 00:12:33;;;;;;;0.80;0.80;;;0.50;69.30;;;0.02;57.65;94399.53;5115679;28;20190;-17
2023/03/12 00:15:00;;;;;;;0.80;0.80;;;0.50;69.20;;;0.03;57.30;94396.00;5115633;28;20186;-17
2023/03/12 00:17:29;;;;;;;0.70;0.70;;;0.50;69.20;;;0.04;57.26;94388.13;5115880;28;20209;-17
2023/03/12 00:19:56;;;;;;;0.80;0.80;;;0.50;69.20;;;-0.02;57.47;94402.38;5115641;28;20525;-17
2023/03/12 00:22:24;;;;;;;0.80;0.80;;;0.50;69.20;;;0.01;57.30;94403.06;5115845;28;20190;-17
2023/03/12 00:24:54;;;;;;;0.70;0.70;;;0.50;69.20;;;-0.05;57.58;94405.25;5131374;27;20238;-17
2023/03/12 00:27:23;;;;;;;0.80;0.80;;;0.40;69.10;;;-0.03;57.43;94408.50;5116332;28;20174;-17
2023/03/12 00:29:50;;;;;;;0.90;0.90;;;0.40;69.10;;;-0.08;57.77;94408.09;5115271;28;20210;-17
2023/03/12 00:32:17;;;;;;;0.70;0.70;;;0.40;69.20;;;-0.09;57.58;94421.13;5114484;28;20212;-17
2023/03/12 00:34:49;;;;;;;0.90;0.90;;;0.40;69.20;;;-0.10;57.63;94433.19;5115348;28;20621;-17
2023/03/12 00:37:16;;;;;;;0.70;0.70;;;0.40;69.20;;;-0.12;57.51;94429.13;5131490;28;20598;-17
2023/03/12 00:39:43;;;;;;;0.73;0.73;;;0.40;69.20;;;-0.07;56.85;94426.97;5115516;28;20201;-17
2023/03/12 00:42:11;;;;;;;0.80;0.80;;;0.30;69.10;;;-0.13;57.73;94445.56;5115907;28;20362;-17
2023/03/12 00:44:38;;;;;;;0.80;0.80;;;0.30;69.10;;;-0.17;57.51;94450.97;5115368;28;20216;-17
2023/03/12 00:47:06;;;;;;;0.80;0.80;;;0.30;69.10;;;-0.18;58.14;94451.94;5131455;28;20194;-17
2023/03/12 00:49:33;;;;;;;0.80;0.80;;;0.30;69.10;;;-0.19;57.46;94450.31;5115073;28;20225;-17
2023/03/12 00:52:00;;;;;;;0.75;0.75;;;0.30;69.00;;;-0.23;58.10;94442.97;5115217;28;20242;-17
2023/03/12 00:54:26;;;;;;;0.80;0.80;;;0.30;69.30;;;-0.20;57.32;94440.13;5115218;28;20197;-17
2023/03/12 00:56:53;;;;;;;0.80;0.80;;;0.30;69.10;;;-0.23;57.68;94446.38;5115454;28;20194;-17
2023/03/12 00:59:20;;;;;;;0.80;0.80;;;0.30;69.10;;;-0.27;57.43;94428.75;5115730;28;20280;-17
2023/03/12 01:01:47;;;;;;;0.80;0.80;;;0.20;69.00;;;-0.28;57.57;94432.28;5119234;28;20186;-17
2023/03/12 01:04:16;;;;;;;0.80;0.80;;;0.20;69.00;;;-0.30;57.31;94422.09;5119168;27;20542;-17
2023/03/12 01:06:43;;;;;;;0.70;0.70;;;0.20;69.00;;;-0.28;57.14;94434.84;5119422;28;20195;-17
2023/03/12 01:09:10;;;;;;;0.90;0.90;;;0.20;69.00;;;-0.33;56.79;94433.50;5084443;28;20222;-17
2023/03/12 01:11:37;;;;;;;0.70;0.70;;;0.10;68.90;;;-0.34;56.80;94442.19;5135181;27;20194;-17
2023/03/12 01:14:07;;;;;;;0.70;0.70;;;0.10;68.90;;;-0.42;57.67;94436.09;5118074;28;20525;-17
2023/03/12 01:16:34;;;;;;;0.70;0.70;;;0.10;68.90;;;-0.43;57.31;94431.88;5101362;28;20213;-17
2023/03/12 01:19:03;;;;;;;0.80;0.80;;;0.10;68.90;;;-0.46;57.83;94432.13;5119197;28;20276;-18
2023/03/12 01:21:30;;;;;;;0.90;0.90;;;0.00;68.90;;;-0.48;57.86;94432.28;5134978;27;20247;-17
2023/03/12 01:23:57;;;;;;;1.00;1.00;;;0.00;69.20;;;-0.50;57.96;94436.75;5100792;28;20248;-17
2023/03/12 01:26:25;;;;;;;0.70;0.70;;;0.00;69.10;;;-0.55;58.29;94429.44;5118750;28;20228;-17
2023/03/12 01:28:52;;;;;;;0.90;0.90;;;0.00;69.40;;;-0.57;58.54;94430.53;5118720;28;20192;-17
2023/03/12 01:31:19;;;;;;;0.82;0.82;;;-0.10;69.70;;;-0.58;58.06;94424.56;5119046;28;20217;-17
2023/03/12 01:33:51;;;;;;;0.80;0.80;;;-0.10;69.60;;;-0.56;57.88;94437.28;5134836;27;20194;-17
2023/03/12 01:36:24;;;;;;;0.90;0.90;;;-0.10;69.60;;;-0.58;57.57;94429.72;5117710;28;20200;-17
2023/03/12 01:38:55;;;;;;;0.90;0.90;;;-0.10;69.40;;;-0.59;58.00;94438.38;5119195;28;20531;-17
2023/03/12 01:41:27;;;;;;;0.80;0.80;;;-0.10;69.50;;;-0.67;58.19;94431.34;5117451;28;20202;-17
2023/03/12 01:43:54;;;;;;;0.70;0.70;;;-0.20;70.40;;;-0.69;58.95;94438.38;5119036;28;20507;-17
2023/03/12 01:46:28;;;;;;;0.80;0.80;;;-0.20;69.80;;;-0.70;58.39;94443.66;5134574;27;20608;-17
2023/03/12 01:49:09;;;;;;;0.80;0.80;;;-0.20;69.70;;;-0.70;58.37;94447.03;5117993;28;20288;-17
2023/03/12 01:51:49;;;;;;;0.80;0.80;;;-0.20;69.70;;;-0.77;59.09;94445.94;5117263;28;20198;-17
2023/03/12 01:54:26;;;;;;;0.82;0.82;;;-0.20;70.20;;;-0.76;58.90;94451.94;5117398;27;20621;-17
2023/03/12 01:56:55;;;;;;;0.70;0.70;;;-0.30;70.10;;;-0.79;59.02;94449.59;5118530;28;20177;-17
2023/03/12 01:59:30;;;;;;;0.80;0.80;;;-0.30;70.30;;;-0.79;59.27;94452.19;5118308;28;20268;-17
2023/03/12 02:01:57;;;;;;;0.70;0.70;;;-0.30;70.30;;;-0.80;59.13;94456.53;5134173;27;20633;-17
2023/03/12 02:04:26;;;;;;;0.80;0.80;;;-0.30;70.30;;;-0.81;59.01;94447.19;5134246;27;20625;-17
2023/03/12 02:07:14;;;;;;;0.80;0.80;;;-0.30;70.30;;;-0.75;58.90;94449.22;5100152;28;20202;-17
2023/03/12 02:09:48;;;;;;;0.80;0.80;;;-0.30;70.20;;;-0.78;58.75;94453.81;5118211;28;20205;-17
2023/03/12 02:12:16;;;;;;;0.70;0.70;;;-0.30;70.20;;;-0.78;58.53;94449.50;5133277;27;20611;-17
2023/03/12 02:14:43;;;;;;;0.80;0.80;;;-0.30;70.10;;;-0.79;58.16;94442.72;5134032;27;20194;-17
2023/03/12 02:17:11;;;;;;;0.77;0.77;;;-0.30;70.00;;;-0.82;58.08;94451.53;5116875;28;20218;-17
2023/03/12 02:19:51;;;;;;;0.80;0.80;;;-0.30;69.80;;;-0.80;58.18;94456.53;5118037;28;20194;-17
2023/03/12 02:22:19;;;;;;;0.80;0.80;;;-0.30;69.70;;;-0.83;58.13;94457.63;5133871;27;20197;-17
2023/03/12 02:24:55;;;;;;;0.80;0.80;;;-0.40;69.70;;;-0.86;57.82;94463.00;5133723;27;20288;-17
2023/03/12 02:27:23;;;;;;;0.80;0.80;;;-0.40;69.60;;;-0.90;58.34;94463.44;5116712;28;20573;-17
2023/03/12 02:29:50;;;;;;;0.80;0.80;;;-0.40;69.70;;;-0.93;57.95;94467.06;5116917;28;20211;-17
2023/03/12 02:32:24;;;;;;;0.80;0.80;;;-0.40;69.70;;;-0.95;57.94;94476.69;5133590;27;20267;-17
2023/03/12 02:34:51;;;;;;;0.80;0.80;;;-0.50;69.70;;;-1.02;59.07;94473.81;5133723;27;20190;-17
2023/03/12 02:37:19;;;;;;;0.80;0.80;;;-0.50;70.10;;;-1.02;59.30;94471.25;5117409;28;20263;-17
2023/03/12 02:39:55;;;;;;;0.90;0.90;;;-0.50;70.30;;;-1.02;59.23;94465.31;5133578;27;20259;-17
2023/03/12 02:42:23;;;;;;;0.70;0.70;;;-0.50;70.40;;;-1.00;59.05;94476.25;5116369;28;20194;-17
2023/03/12 02:44:50;;;;;;;0.90;0.90;;;-0.50;70.30;;;-1.04;59.87;94474.91;5133975;27;20194;-17
2023/03/12 02:47:17;;;;;;;0.80;0.80;;;-0.50;70.60;;;-1.08;59.79;94482.06;5117383;28;20197;-17
2023/03/12 02:49:45;;;;;;;0.80;0.80;;;-0.50;70.70;;;-1.06;59.62;94476.78;5117650;28;20270;-17
2023/03/12 02:52:12;;;;;;;0.85;0.85;;;-0.50;70.60;;;-1.07;59.33;94485.47;5117012;28;20537;-17
2023/03/12 02:54:39;;;;;;;0.90;0.90;;;-0.60;70.60;;;-1.05;58.99;94486.97;5133209;27;20668;-17
2023/03/12 02:57:06;;;;;;;0.80;0.80;;;-0.60;70.50;;;-1.07;59.63;94493.19;5117068;28;20304;-17
2023/03/12 02:59:34;;;;;;;0.90;0.90;;;-0.60;70.70;;;-1.09;59.12;94490.72;5099231;28;20205;-17
2023/03/12 03:02:03;;;;;;;0.80;0.80;;;-0.60;70.70;;;-1.13;59.58;94492.75;5133687;27;20252;-17
2023/03/12 03:04:31;;;;;;;0.80;0.80;;;-0.60;70.70;;;-1.13;60.04;94492.75;5115939;28;20198;-17
2023/03/12 03:06:58;;;;;;;0.80;0.80;;;-0.60;71.80;;;-1.15;59.91;94499.81;5116695;28;20232;-17
2023/03/12 03:09:25;;;;;;;0.90;0.90;;;-0.60;71.00;;;-1.16;59.98;94493.03;5115734;28;20202;-17
2023/03/12 03:11:53;;;;;;;0.77;0.77;;;-0.60;71.00;;;-1.12;59.36;94509.03;5115680;28;20538;-17
2023/03/12 03:14:22;;;;;;;0.80;0.80;;;-0.60;70.90;;;-1.12;59.39;94503.88;5115731;28;20633;-17
2023/03/12 03:16:50;;;;;;;0.77;0.77;;;-0.60;70.70;;;-1.14;59.21;94518.63;5115669;28;20190;-17
2023/03/12 03:19:17;;;;;;;0.80;0.80;;;-0.60;70.70;;;-1.14;59.31;94510.91;5115662;28;20190;-17
2023/03/12 03:21:45;;;;;;;0.90;0.90;;;-0.60;70.90;;;-1.13;59.64;94520.25;5132538;27;20204;-17
2023/03/12 03:24:12;;;;;;;0.80;0.80;;;-0.60;70.90;;;-1.13;59.81;94526.22;5115345;28;20573;-17
2023/03/12 03:26:39;;;;;;;0.77;0.77;;;-0.60;70.90;;;-1.11;59.35;94525.28;5116447;28;20186;-17
2023/03/12 03:29:06;;;;;;;0.90;0.90;;;-0.70;70.70;;;-1.14;58.85;94534.06;5115441;28;20189;-17
2023/03/12 03:31:33;;;;;;;0.70;0.70;;;-0.70;70.70;;;-1.16;59.16;94526.47;5132386;27;20253;-17
2023/03/12 03:34:00;;;;;;;0.90;0.90;;;-0.70;70.70;;;-1.21;59.98;94533.78;5132390;27;20618;-17
2023/03/12 03:36:27;;;;;;;0.82;0.82;;;-0.70;71.00;;;-1.20;59.83;94530.25;5115283;28;20255;-17
2023/03/12 03:39:03;;;;;;;0.80;0.80;;;-0.70;71.10;;;-1.20;59.88;94529.44;5115237;28;20629;-17
2023/03/12 03:41:34;;;;;;;0.80;0.80;;;-0.70;71.90;;;-1.22;59.59;94528.75;5116570;28;20222;-17
2023/03/12 03:44:00;;;;;;;0.75;0.75;;;-0.70;70.90;;;-1.24;59.77;94523.72;5116877;28;20511;-17
2023/03/12 03:46:30;;;;;;;0.80;0.80;;;-0.70;70.90;;;-1.25;59.92;94531.59;5115116;28;20221;-17
2023/03/12 03:49:02;;;;;;;0.80;0.80;;;-0.70;70.90;;;-1.24;59.27;94531.44;5115182;28;20205;-17
2023/03/12 03:51:30;;;;;;;0.80;0.80;;;-0.70;70.90;;;-1.23;59.00;94530.50;5098254;28;20252;-17
2023/03/12 03:54:03;;;;;;;0.80;0.80;;;-0.80;70.60;;;-1.26;59.03;94533.31;5115018;28;20194;-17
2023/03/12 03:56:30;;;;;;;0.80;0.80;;;-0.80;70.60;;;-1.29;59.29;94526.69;5114945;28;20196;-17
2023/03/12 03:59:00;;;;;;;0.80;0.80;;;-0.80;70.60;;;-1.28;58.81;94540.38;5098334;28;20630;-17
2023/03/12 04:01:28;;;;;;;0.80;0.80;;;-0.80;70.50;;;-1.34;58.71;94526.25;5114764;28;20704;-17
2023/03/12 04:03:56;;;;;;;0.80;0.80;;;-0.80;70.40;;;-1.38;59.09;94530.03;5114963;28;20535;-17
2023/03/12 04:06:23;;;;;;;0.80;0.80;;;-0.90;70.50;;;-1.41;58.70;94525.16;5114818;28;20197;-17
2023/03/12 04:08:50;;;;;;;0.80;0.80;;;-0.90;70.40;;;-1.44;58.85;94530.56;5114776;28;20601;-17
2023/03/12 04:11:22;;;;;;;0.80;0.80;;;-1.00;70.40;;;-1.46;58.72;94524.72;5114957;28;20222;-17
2023/03/12 04:13:50;;;;;;;0.82;0.82;;;-1.00;70.30;;;-1.53;58.84;94519.25;5115963;28;20251;-17
2023/03/12 04:16:20;;;;;;;0.90;0.90;;;-1.00;70.30;;;-1.51;58.50;94526.88;5114674;28;20578;-17
2023/03/12 04:18:49;;;;;;;0.80;0.80;;;-1.00;70.30;;;-1.57;58.55;94522.22;5114643;28;20643;-17
2023/03/12 04:21:16;;;;;;;0.80;0.80;;;-1.10;70.30;;;-1.61;58.87;94527.63;5114964;28;20190;-17
2023/03/12 04:23:45;;;;;;;0.80;0.80;;;-1.10;70.40;;;-1.67;59.19;94538.41;5097853;28;20248;-17
2023/03/12 04:26:13;;;;;;;0.80;0.80;;;-1.20;70.50;;;-1.65;59.20;94538.28;5114597;28;20255;-17
2023/03/12 04:28:40;;;;;;;0.90;0.90;;;-1.20;70.60;;;-1.68;59.34;94534.19;5115348;28;20240;-17
2023/03/12 04:31:10;;;;;;;0.80;0.80;;;-1.20;70.60;;;-1.69;58.77;94531.75;5114375;28;20222;-17
2023/03/12 04:33:48;;;;;;;0.80;0.80;;;-1.20;70.60;;;-1.73;59.36;94545.78;5115305;28;20186;-17
2023/03/12 04:36:16;;;;;;;0.80;0.80;;;-1.20;70.70;;;-1.76;59.94;94546.88;5115986;28;20614;-17
2023/03/12 04:38:46;;;;;;;0.90;0.90;;;-1.20;70.80;;;-1.74;60.32;94551.91;5114865;28;20194;-17
2023/03/12 04:41:15;;;;;;;0.90;0.90;;;-1.30;71.10;;;-1.74;60.92;94555.28;5114945;28;20194;-17
2023/03/12 04:43:50;;;;;;;0.80;0.80;;;-1.20;71.50;;;-1.73;60.89;94574.91;5115642;28;20209;-17
2023/03/12 04:46:18;;;;;;;0.80;0.80;;;-1.20;71.70;;;-1.72;61.34;94568.84;5114613;28;20288;-17
2023/03/12 04:48:45;;;;;;;0.80;0.80;;;-1.20;71.90;;;-1.70;61.52;94569.50;5097447;28;20212;-17
2023/03/12 04:51:14;;;;;;;0.90;0.90;;;-1.20;72.10;;;-1.63;61.45;94572.41;5114109;28;20290;-17
2023/03/12 04:53:41;;;;;;;0.80;0.80;;;-1.20;72.20;;;-1.61;61.17;94568.75;5114261;28;20629;-17
2023/03/12 04:56:11;;;;;;;0.90;0.90;;;-1.10;72.10;;;-1.55;60.52;94571.75;5097758;28;20193;-17
2023/03/12 04:58:38;;;;;;;0.80;0.80;;;-1.10;71.90;;;-1.55;60.64;94574.34;5114261;28;20194;-17
2023/03/12 05:01:06;;;;;;;0.80;0.80;;;-1.10;71.90;;;-1.52;60.86;94574.09;5114363;28;20537;-17
2023/03/12 05:03:34;;;;;;;0.80;0.80;;;-1.00;71.90;;;-1.47;60.23;94587.38;5114196;28;20301;-17
2023/03/12 05:06:01;;;;;;;0.90;0.90;;;-1.00;71.70;;;-1.51;60.26;94586.81;5114167;28;20688;-17
2023/03/12 05:08:28;;;;;;;0.80;0.80;;;-1.00;71.60;;;-1.48;60.05;94580.59;5114167;28;20247;-17
2023/03/12 05:10:56;;;;;;;0.80;0.80;;;-1.00;71.50;;;-1.52;60.19;94579.25;5114052;28;20305;-17
2023/03/12 05:13:23;;;;;;;0.80;0.80;;;-1.00;71.50;;;-1.48;59.80;94573.72;5114249;28;20580;-17
2023/03/12 05:15:54;;;;;;;0.82;0.82;;;-1.00;71.40;;;-1.48;59.46;94576.31;5114374;28;20251;-17
2023/03/12 05:18:21;;;;;;;0.80;0.80;;;-1.00;71.20;;;-1.51;59.33;94578.31;5114032;28;20198;-17
2023/03/12 05:21:02;;;;;;;0.80;0.80;;;-1.00;71.20;;;-1.49;59.49;94584.94;5114037;28;20205;-17
2023/03/12 05:23:30;;;;;;;0.73;0.73;;;-1.00;71.20;;;-1.54;59.64;94583.69;5113791;28;20265;-17
2023/03/12 05:25:58;;;;;;;0.90;0.90;;;-1.00;71.10;;;-1.52;59.31;94587.75;5113995;28;20292;-17
2023/03/12 05:28:27;;;;;;;0.90;0.90;;;-1.00;71.10;;;-1.56;59.63;94586.38;5114803;28;20208;-17
2023/03/12 05:30:59;;;;;;;0.80;0.80;;;-1.10;71.20;;;-1.52;59.46;94592.09;5113942;28;20275;-17
2023/03/12 05:33:27;;;;;;;0.80;0.80;;;-1.10;71.20;;;-1.57;59.62;94595.03;5113804;28;20656;-18
2023/03/12 05:35:57;;;;;;;0.80;0.80;;;-1.10;71.40;;;-1.55;59.85;94594.91;5114799;28;20182;-17
2023/03/12 05:38:25;;;;;;;0.70;0.70;;;-1.10;71.40;;;-1.53;59.73;94587.91;5113879;28;20633;-17
2023/03/12 05:40:54;;;;;;;0.80;0.80;;;-1.00;71.40;;;-1.53;59.63;94593.84;5115082;28;20190;-17
2023/03/12 05:43:22;;;;;;;0.80;0.80;;;-1.00;71.50;;;-1.47;59.74;94600.25;5114946;28;20194;-17
2023/03/12 05:45:51;;;;;;;0.80;0.80;;;-1.00;71.60;;;-1.46;59.62;94599.31;5097818;28;20205;-17
2023/03/12 05:48:19;;;;;;;0.80;0.80;;;-1.00;71.70;;;-1.45;59.78;94600.94;5117405;28;20201;-17
2023/03/12 05:50:48;;;;;;;0.80;0.80;;;-1.00;71.70;;;-1.41;59.68;94606.66;5118194;28;20291;-17
2023/03/12 05:53:15;;;;;;;0.80;0.80;;;-0.90;71.60;;;-1.37;59.80;94608.81;5117262;28;20224;-17
2023/03/12 05:55:42;;;;;;;0.70;0.70;;;-0.90;71.70;;;-1.33;59.83;94606.81;5118536;28;20194;-17
2023/03/12 05:58:10;;;;;;;0.80;0.80;;;-0.80;71.70;;;-1.30;60.14;94609.97;5117272;28;20534;-17
2023/03/12 06:00:43;;;;;;;0.80;0.80;;;-0.80;71.90;;;-1.24;60.25;94608.66;5118451;28;20198;-17
2023/03/12 06:03:12;;;;;;;0.80;0.80;;;-0.70;72.00;;;-1.14;59.82;94596.63;5117167;28;20232;-17
2023/03/12 06:05:40;;;;;;;0.80;0.80;;;-0.70;72.00;;;-1.02;59.99;94609.44;5117118;28;20222;-17
2023/03/12 06:08:07;;;;;;;0.80;0.80;;;-0.60;72.10;;;-0.91;59.92;94606.78;5117096;28;20222;-17
2023/03/12 06:10:36;;;;;;;0.90;0.90;;;-0.50;72.10;;;-0.81;59.56;94602.50;5116924;28;20214;-17
2023/03/12 06:13:04;;;;;;;0.75;0.75;;;-0.40;72.10;;;-0.68;59.49;94617.72;5117672;28;20231;-17
2023/03/12 06:15:31;;;;;;;0.80;0.80;;;-0.30;72.10;;;-0.61;59.56;94615.44;5116943;28;20302;-17
2023/03/12 06:17:59;;;;;;;0.80;0.80;;;-0.20;72.10;;;-0.56;59.41;94615.03;5116854;28;20201;-17
2023/03/12 06:20:26;;;;;;;0.80;0.80;;;-0.10;72.00;;;-0.48;59.39;94612.63;5116841;28;20194;-18
2023/03/12 06:22:53;;;;;;;0.70;0.70;;;0.00;71.90;;;-0.37;58.92;94619.44;5116691;28;20256;-17
2023/03/12 06:25:20;;;;;;;0.80;0.80;;;0.10;71.70;;;-0.30;58.52;94612.00;5116600;28;20225;-17
2023/03/12 06:27:47;;;;;;;0.90;0.90;;;0.30;71.80;;;-0.17;58.59;94623.69;5116665;28;20198;-17
2023/03/12 06:30:15;;;;;;;0.70;0.70;;;0.30;71.60;;;-0.10;57.89;94621.38;5117513;28;20652;-17
2023/03/12 06:32:42;;;;;;;0.65;0.65;;;0.50;71.40;;;0.01;57.89;94617.06;5118247;28;20571;-17
2023/03/12 06:35:09;;;;;;;0.73;0.73;;;0.60;71.30;;;0.10;57.39;94626.56;5116654;28;20247;-17
2023/03/12 06:37:36;;;;;;;0.70;0.70;;;0.70;71.00;;;0.14;57.22;94622.78;5117739;28;20202;-17
2023/03/12 06:40:03;;;;;;;0.80;0.80;;;0.80;70.70;;;0.25;56.75;94629.56;5117414;27;20190;-17
2023/03/12 06:42:31;;;;;;;0.70;0.70;;;0.80;70.60;;;0.31;56.60;94629.03;5117717;28;20202;-17
2023/03/12 06:44:58;;;;;;;0.80;0.80;;;0.90;70.30;;;0.37;56.44;94638.00;5116607;28;20186;-17
2023/03/12 06:47:25;;;;;;;0.80;0.80;;;1.00;70.10;;;0.40;56.27;94642.88;5117479;28;20528;-17
2023/03/12 06:49:52;;;;;;;0.75;0.75;;;1.00;69.90;;;0.44;56.46;94634.72;5117191;28;20190;-17
2023/03/12 06:52:18;;;;;;;0.70;0.70;;;1.10;69.90;;;0.56;56.68;94632.81;5117018;28;20213;-18
2023/03/12 06:54:45;;;;;;;0.70;0.70;;;1.10;70.10;;;0.66;56.34;94634.56;5117627;28;20190;-17
2023/03/12 06:57:12;;;;;;;0.80;0.80;;;1.20;70.00;;;0.80;56.57;94637.53;5117008;28;20190;-17
2023/03/12 06:59:39;;;;;;;0.80;0.80;;;1.40;71.10;;;0.90;56.20;94642.66;5116059;28;20684;-17
2023/03/12 07:02:10;;;;;;;0.70;0.70;;;1.50;69.90;;;1.01;55.72;94640.91;5116539;28;20605;-17
2023/03/12 07:04:37;;;;;;;0.70;0.70;;;1.60;70.00;;;1.11;56.13;94637.34;5117250;28;20586;-17
2023/03/12 07:07:04;;;;;;;0.70;0.70;;;1.70;70.10;;;1.26;56.21;94635.09;5116264;28;20193;-17
2023/03/12 07:09:31;;;;;;;0.80;0.80;;;1.80;70.10;;;1.39;55.28;94634.81;5115934;28;20200;-17
2023/03/12 07:11:58;;;;;;;0.80;0.80;;;2.00;70.20;;;1.50;54.84;94638.97;5116824;28;20210;-17
2023/03/12 07:14:25;;;;;;;0.90;0.90;;;2.10;69.70;;;1.65;55.02;94634.13;5116988;28;20197;-17
2023/03/12 07:16:52;;;;;;;0.80;0.80;;;2.20;69.70;;;1.74;55.02;94637.63;5116930;28;20186;-17
2023/03/12 07:19:19;;;;;;;0.70;0.70;;;2.30;69.60;;;1.84;54.05;94635.78;5116058;28;20206;-17
2023/03/12 07:21:47;;;;;;;0.80;0.80;;;2.50;69.30;;;1.99;54.15;94640.47;5115692;28;20206;-18
2023/03/12 07:24:14;;;;;;;0.80;0.80;;;2.60;69.20;;;2.12;54.42;94642.72;5116665;28;20276;-17
2023/03/12 07:26:42;;;;;;;0.70;0.70;;;2.70;69.20;;;2.27;54.46;94643.84;5116150;28;20274;-17
2023/03/12 07:29:09;;;;;;;0.80;0.80;;;2.80;69.10;;;2.36;53.02;94644.75;5116374;28;20201;-18
2023/03/12 07:31:36;;;;;;;0.80;0.80;;;3.00;68.60;;;2.50;53.28;94643.41;5115744;28;20213;-17
2023/03/12 07:34:04;;;;;;;0.80;0.80;;;3.10;68.80;;;2.58;52.11;94640.88;5116233;28;20193;-17
2023/03/12 07:36:32;;;;;;;0.77;0.77;;;3.20;68.00;;;2.72;51.65;94644.69;5116580;28;20182;-17
2023/03/12 07:38:59;;;;;;;0.70;0.70;;;3.30;67.80;;;2.83;51.82;94646.25;5115409;28;20193;-17
2023/03/12 07:41:26;;;;;;;0.70;0.70;;;3.40;67.90;;;2.92;51.91;94641.94;5116468;28;20206;-17
2023/03/12 07:43:53;;;;;;;0.70;0.70;;;3.60;67.60;;;3.03;51.34;94634.72;5116497;28;20201;-17
2023/03/12 07:46:20;;;;;;;0.73;0.73;;;3.70;67.40;;;3.10;51.79;94631.53;5115252;28;20250;-17
2023/03/12 07:48:47;;;;;;;0.73;0.73;;;3.80;67.40;;;3.19;51.70;94628.03;5116406;28;20513;-17
2023/03/12 07:51:14;;;;;;;0.80;0.80;;;3.90;67.20;;;3.25;50.90;94629.19;5115958;28;20559;-17
2023/03/12 07:53:41;;;;;;;0.80;0.80;;;4.00;66.80;;;3.28;50.95;94624.50;5116175;28;20204;-17
2023/03/12 07:56:08;;;;;;;0.70;0.70;;;4.10;66.60;;;3.35;50.73;94622.13;5115007;28;20292;-17
2023/03/12 07:58:37;;;;;;;0.60;0.60;;;4.10;66.30;;;3.41;51.24;94624.09;5116158;28;20214;-17
2023/03/12 08:01:05;;;;;;;0.70;0.70;;;4.20;66.70;;;3.45;50.36;94620.22;5114937;28;20225;-17
2023/03/12 08:03:32;;;;;;;0.70;0.70;;;4.20;66.30;;;3.52;50.06;94625.59;5115748;28;20201;-17
2023/03/12 08:06:02;;;;;;;0.70;0.70;;;4.30;66.20;;;3.57;49.51;94622.56;5116613;28;20210;-17
2023/03/12 08:08:30;;;;;;;0.70;0.70;;;4.30;65.60;;;3.61;49.58;94623.88;5115217;28;20194;-17
2023/03/12 08:10:58;;;;;;;0.70;0.70;;;4.40;65.70;;;3.67;49.28;94625.81;5115642;28;20258;-17
2023/03/12 08:13:26;;;;;;;0.60;0.60;;;4.40;65.60;;;3.73;49.30;94620.00;5115605;28;20272;-17
2023/03/12 08:15:53;;;;;;;0.70;0.70;;;4.50;65.60;;;3.86;49.78;94619.59;5115644;28;20242;-17
2023/03/12 08:18:21;;;;;;;0.73;0.73;;;4.60;65.90;;;3.98;48.23;94625.31;5115879;28;20304;-17
2023/03/12 08:20:51;;;;;;;0.70;0.70;;;4.70;65.30;;;4.05;47.86;94631.47;5115567;28;20189;-17
2023/03/12 08:23:19;;;;;;;0.70;0.70;;;4.80;64.80;;;4.07;46.73;94636.50;5107475;28;20190;-17
2023/03/12 08:25:48;;;;;;;0.70;0.70;;;4.90;64.10;;;4.09;46.71;94630.19;5106120;28;20198;-17
2023/03/12 08:28:16;;;;;;;0.70;0.70;;;4.90;64.00;;;4.12;47.81;94647.22;5097645;28;20194;-17
2023/03/12 08:30:52;;;;;;;0.70;0.70;;;4.90;64.40;;;4.13;47.28;94641.06;5103711;28;20251;-17
2023/03/12 08:33:20;;;;;;;0.60;0.60;;;4.90;63.90;;;4.14;47.41;94633.13;5114484;28;20684;-17
2023/03/12 08:35:48;;;;;;;0.70;0.70;;;5.00;64.10;;;4.20;47.84;94639.47;5108612;28;20598;-17
2023/03/12 08:38:15;;;;;;;0.70;0.70;;;5.00;64.20;;;4.26;48.24;94628.44;5105608;28;20194;-17
2023/03/12 08:40:43;;;;;;;0.80;0.80;;;5.00;64.50;;;4.37;48.40;94635.13;5105923;27;20190;-17
2023/03/12 08:43:10;;;;;;;0.70;0.70;;;5.10;64.80;;;4.51;47.83;94633.66;5095345;28;20231;-17
2023/03/12 08:45:37;;;;;;;0.70;0.70;;;5.20;64.40;;;4.62;45.57;94638.53;5099608;28;20194;-17
2023/03/12 08:48:07;;;;;;;0.70;0.70;;;5.30;63.20;;;4.69;46.12;94633.50;5119399;27;20195;-17
2023/03/12 08:50:34;;;;;;;0.70;0.70;;;5.40;63.40;;;4.83;46.24;94639.03;5101489;28;20186;-17
2023/03/12 08:53:01;;;;;;;0.70;0.70;;;5.50;63.40;;;4.99;44.78;94640.81;5102780;28;20218;-17
2023/03/12 08:55:28;;;;;;;0.70;0.70;;;5.60;62.40;;;5.08;45.71;94637.22;5102060;28;20547;-17
2023/03/12 08:57:55;;;;;;;0.70;0.70;;;5.70;63.00;;;5.21;43.52;94650.53;5113360;28;20193;-17
2023/03/12 09:00:23;;;;;;;0.75;0.75;;;5.90;62.10;;;5.29;43.35;94644.50;5108554;28;20202;-17
2023/03/12 09:02:52;;;;;;;0.70;0.70;;;6.00;61.60;;;5.34;43.29;94638.81;5094826;28;20629;-17
2023/03/12 09:05:19;;;;;;;0.80;0.80;;;6.10;61.60;;;5.43;42.32;94641.22;5095469;28;20264;-17
2023/03/12 09:07:48;;;;;;;0.70;0.70;;;6.20;61.20;;;5.53;42.49;94637.59;5102867;28;20604;-17
2023/03/12 09:10:16;;;;;;;0.70;0.70;;;6.30;61.00;;;5.64;43.51;94649.44;5095017;28;20268;-17
2023/03/12 09:12:43;;;;;;;0.80;0.80;;;6.30;61.40;;;5.74;42.79;94653.47;5110375;28;20253;-17
2023/03/12 09:15:11;;;;;;;0.60;0.60;;;6.50;61.40;;;5.91;42.39;94650.81;5113495;28;20190;-17
2023/03/12 09:17:38;;;;;;;0.70;0.70;;;6.60;61.00;;;6.01;42.26;94658.47;5115039;28;20260;-17
2023/03/12 09:20:07;;;;;;;0.70;0.70;;;6.70;60.90;;;6.07;40.45;94663.00;5116163;28;20186;-17
2023/03/12 09:22:38;;;;;;;0.70;0.70;;;6.80;59.70;;;6.11;41.41;94658.25;5117962;28;20507;-17
2023/03/12 09:25:08;;;;;;;0.70;0.70;;;6.80;60.20;;;6.21;41.33;94656.22;5118710;28;20233;-17
2023/03/12 09:27:40;;;;;;;0.70;0.70;;;6.90;59.70;;;6.33;40.75;94654.88;5098418;28;20203;-17
2023/03/12 09:30:12;;;;;;;0.80;0.80;;;7.00;59.30;;;6.40;41.10;94649.78;5097806;28;20193;-17
2023/03/12 09:32:39;;;;;;;0.70;0.70;;;7.10;59.60;;;6.45;41.37;94639.66;5098428;28;20217;-17
2023/03/12 09:35:08;;;;;;;0.73;0.73;;;7.20;59.90;;;6.60;40.12;94651.94;5098938;28;20195;-17
2023/03/12 09:37:35;;;;;;;0.70;0.70;;;7.30;58.80;;;6.68;40.59;94652.69;5106898;27;20317;-17
2023/03/12 09:40:06;;;;;;;0.80;0.80;;;7.40;59.00;;;6.78;39.84;94643.84;5108102;28;20194;-18
2023/03/12 09:43:04;;;;;;;0.60;0.60;;;7.50;58.60;;;6.88;40.20;94641.78;5118895;28;20202;-17
2023/03/12 09:45:43;;;;;;;0.70;0.70;;;7.60;58.00;;;6.89;37.96;94638.19;5097501;28;20217;-17
2023/03/12 09:48:16;;;;;;;0.70;0.70;;;7.70;57.40;;;6.85;38.82;94647.38;5097353;28;20198;-17
2023/03/12 09:50:49;;;;;;;0.80;0.80;;;7.70;57.40;;;6.87;39.90;94646.22;5097607;28;20621;-17
2023/03/12 09:53:27;;;;;;;0.60;0.60;;;7.70;58.00;;;6.87;40.02;94640.16;5097213;28;20214;-17
2023/03/12 09:56:01;;;;;;;0.65;0.65;;;7.70;58.10;;;6.89;39.26;94641.59;5098201;28;20201;-17
2023/03/12 09:58:32;;;;;;;0.70;0.70;;;7.70;57.70;;;6.85;38.71;94637.75;5101438;28;20285;-17
2023/03/12 10:01:35;;;;;;;0.70;0.70;;;7.70;57.00;;;6.93;40.32;94630.84;5118273;28;20257;-17
2023/03/12 10:04:23;;;;;;;0.70;0.70;;;7.70;58.10;;;6.99;40.58;94624.91;5118440;28;20185;-17
2023/03/12 10:07:30;;;;;;;0.70;0.70;;;7.70;58.40;;;7.04;38.76;94622.59;5116800;28;20198;-17
2023/03/12 10:10:52;;;;;;;0.70;0.70;;;7.80;57.80;;;7.06;37.87;94628.44;5097339;28;20178;-17
2023/03/12 10:13:48;;;;;;;0.70;0.70;;;7.80;56.60;;;6.96;38.72;94627.91;5110802;28;20250;-17
2023/03/12 10:16:43;;;;;;;0.70;0.70;;;7.80;57.20;;;7.01;37.29;94628.16;5098994;28;20198;-17
2023/03/12 10:19:33;;;;;;;0.70;0.70;;;7.80;56.60;;;7.00;37.44;94623.94;5097730;28;20545;-17
2023/03/12 10:22:18;;;;;;;0.70;0.70;;;7.80;56.10;;;6.94;37.64;94622.03;5097384;28;20591;-17
2023/03/12 10:25:03;;;;;;;0.70;0.70;;;7.70;56.50;;;6.93;38.02;94615.19;5065329;28;20227;-17
2023/03/12 10:27:35;;;;;;;0.70;0.70;;;7.70;56.30;;;6.90;38.29;94618.97;5098668;28;20193;-17
2023/03/12 10:30:24;;;;;;;0.70;0.70;;;7.70;55.80;;;6.90;39.11;94608.53;5108275;28;20273;-17
2023/03/12 10:33:03;;;;;;;0.70;0.70;;;7.70;56.60;;;7.05;39.97;94605.97;5114821;28;20217;-17
2023/03/12 10:35:30;;;;;;;0.70;0.70;;;7.70;57.60;;;7.27;40.45;94612.09;5106629;27;20274;-17